Time;durP1;ratioP1;P1;durP2;ratioP2;P2;SDS_P1;SDS_P2;PMS_P1;PMS_P2;Temp;Humidity;BMP_temperature;BMP_pressure;BME280_temperature;BME280_humidity;BME280_pressure;Samples;Min_cycle;Max_cycle;Signal;HPM_P1;HPM_P2
2021/04/06 00:01:01;;;;;;;9.67;2.70;;;3.10;60.30;;;;;;5043406;28;20864;-44
2021/04/06 00:03:29;;;;;;;4.43;1.47;;;3.10;60.10;;;;;;5039095;28;20461;-44
2021/04/06 00:05:59;;;;;;;4.70;1.67;;;3.10;60.10;;;;;;5036318;28;20487;-44
2021/04/06 00:08:27;;;;;;;3.60;1.77;;;3.00;60.00;;;;;;5037908;28;20459;-44
2021/04/06 00:10:57;;;;;;;4.17;1.70;;;3.00;59.90;;;;;;5038199;28;20687;-44
2021/04/06 00:13:31;;;;;;;3.97;1.37;;;3.00;59.80;;;;;;5039533;28;20459;-44
2021/04/06 00:15:58;;;;;;;4.37;1.57;;;3.00;59.70;;;;;;5035702;28;20702;-44
2021/04/06 00:18:25;;;;;;;4.03;1.33;;;3.00;60.00;;;;;;5041685;28;20449;-44
2021/04/06 00:20:57;;;;;;;7.43;2.13;;;2.90;59.80;;;;;;5040805;28;20835;-44
2021/04/06 00:23:24;;;;;;;3.93;1.30;;;2.90;60.10;;;;;;5053853;28;20828;-44
2021/04/06 00:25:52;;;;;;;10.13;1.90;;;2.90;60.30;;;;;;5038260;28;20487;-44
2021/04/06 00:28:34;;;;;;;4.13;1.30;;;2.90;60.20;;;;;;5037463;28;20463;-44
2021/04/06 00:31:03;;;;;;;12.13;3.73;;;2.90;60.30;;;;;;5037372;28;20489;-44
2021/04/06 00:33:43;;;;;;;5.97;1.60;;;2.90;60.50;;;;;;5038879;28;20455;-44
2021/04/06 00:36:10;;;;;;;7.03;1.60;;;2.80;60.60;;;;;;5041258;28;20848;-44
2021/04/06 00:38:41;;;;;;;3.23;1.70;;;2.80;61.10;;;;;;5038963;28;20837;-44
2021/04/06 00:41:14;;;;;;;5.47;1.47;;;2.70;61.50;;;;;;5036785;28;20796;-44
2021/04/06 00:43:43;;;;;;;4.00;1.77;;;2.70;61.60;;;;;;5039238;28;20562;-44
2021/04/06 00:46:16;;;;;;;3.33;1.67;;;2.70;62.00;;;;;;5039276;28;20482;-44
2021/04/06 00:48:48;;;;;;;6.83;1.63;;;2.70;62.90;;;;;;5041188;28;20455;-44
2021/04/06 00:51:20;;;;;;;5.57;1.80;;;2.70;63.70;;;;;;5037652;28;20473;-44
2021/04/06 00:53:57;;;;;;;3.73;1.30;;;2.70;64.10;;;;;;5037277;28;20463;-44
2021/04/06 00:56:44;;;;;;;2.27;1.80;;;2.70;64.10;;;;;;5039428;28;20845;-44
2021/04/06 00:59:23;;;;;;;2.97;1.27;;;2.70;64.10;;;;;;5034195;28;20451;-44
2021/04/06 01:01:59;;;;;;;3.33;1.87;;;2.70;63.90;;;;;;5039769;28;20502;-44
2021/04/06 01:04:28;;;;;;;6.57;1.77;;;2.70;63.90;;;;;;5038394;28;20454;-44
2021/04/06 01:07:06;;;;;;;3.93;1.77;;;2.70;64.10;;;;;;5039086;28;20483;-44
2021/04/06 01:09:46;;;;;;;3.90;1.97;;;2.70;64.30;;;;;;5035330;28;20454;-44
2021/04/06 01:12:19;;;;;;;8.17;2.43;;;2.70;64.40;;;;;;5036152;28;20452;-44
2021/04/06 01:14:47;;;;;;;9.30;2.47;;;2.70;64.60;;;;;;5037289;28;20964;-44
2021/04/06 01:17:20;;;;;;;7.23;1.80;;;2.70;64.80;;;;;;5040101;28;20479;-44
2021/04/06 01:19:47;;;;;;;4.00;1.57;;;2.70;64.70;;;;;;5040199;28;20667;-44
2021/04/06 01:22:15;;;;;;;4.73;1.50;;;2.70;64.90;;;;;;5036564;28;20467;-44
2021/04/06 01:24:43;;;;;;;4.20;1.60;;;2.70;64.90;;;;;;5043383;28;20489;-44
2021/04/06 01:27:13;;;;;;;1.90;1.50;;;2.80;65.00;;;;;;5039327;28;20875;-44
2021/04/06 01:29:56;;;;;;;3.60;2.13;;;2.80;65.00;;;;;;5037834;28;20458;-44
2021/04/06 01:32:27;;;;;;;3.93;1.73;;;2.80;64.90;;;;;;5040268;28;20943;-44
2021/04/06 01:34:54;;;;;;;7.30;2.07;;;2.80;65.00;;;;;;5035979;28;20459;-44
2021/04/06 01:37:22;;;;;;;7.00;2.40;;;2.80;65.10;;;;;;5039122;28;20451;-44
2021/04/06 01:39:52;;;;;;;4.30;1.83;;;2.90;65.20;;;;;;5035999;28;20947;-44
2021/04/06 01:42:20;;;;;;;5.13;1.73;;;2.90;65.10;;;;;;5037164;28;20469;-44
2021/04/06 01:44:49;;;;;;;7.40;1.90;;;2.90;65.40;;;;;;5044794;28;20974;-44
2021/04/06 01:47:17;;;;;;;2.97;1.73;;;2.90;66.60;;;;;;5037992;28;20491;-44
2021/04/06 01:49:44;;;;;;;4.30;1.27;;;2.80;67.50;;;;;;5043484;28;20951;-44
2021/04/06 01:52:11;;;;;;;3.70;2.20;;;2.80;67.30;;;;;;5042692;28;20541;-44
2021/04/06 01:54:39;;;;;;;3.20;1.97;;;2.80;67.50;;;;;;5040969;28;20488;-44
2021/04/06 01:57:17;;;;;;;6.63;2.30;;;2.80;67.50;;;;;;5040495;28;20459;-44
2021/04/06 01:59:51;;;;;;;7.17;2.40;;;2.70;67.80;;;;;;5040997;28;20490;-44
2021/04/06 02:02:24;;;;;;;4.67;1.97;;;2.70;67.80;;;;;;5040231;28;20547;-44
2021/04/06 02:04:58;;;;;;;5.40;2.47;;;2.60;68.50;;;;;;5044696;28;20950;-44
2021/04/06 02:07:29;;;;;;;6.07;1.50;;;2.60;68.70;;;;;;5029241;28;20483;-43
2021/04/06 02:09:57;;;;;;;8.63;1.87;;;2.60;69.00;;;;;;5041276;28;20469;-44
2021/04/06 02:12:23;;;;;;;1.43;1.30;;;2.60;69.20;;;;;;5041369;28;20462;-44
2021/04/06 02:14:56;;;;;;;3.73;2.00;;;2.60;69.20;;;;;;5043286;28;20835;-44
2021/04/06 02:17:23;;;;;;;8.90;1.80;;;2.50;69.40;;;;;;5040830;28;20501;-44
2021/04/06 02:19:49;;;;;;;5.03;2.10;;;2.50;69.50;;;;;;5043440;28;20473;-43
2021/04/06 02:22:20;;;;;;;2.83;2.10;;;2.50;69.40;;;;;;5057305;28;20534;-43
2021/04/06 02:24:52;;;;;;;4.20;1.87;;;2.60;69.50;;;;;;5042398;28;20467;-43
2021/04/06 02:27:24;;;;;;;3.00;1.67;;;2.60;69.40;;;;;;5037320;28;20502;-43
2021/04/06 02:29:56;;;;;;;4.13;2.10;;;2.60;69.50;;;;;;5037818;28;20956;-42
2021/04/06 02:32:33;;;;;;;2.80;2.33;;;2.60;69.30;;;;;;5038413;28;20843;-42
2021/04/06 02:35:04;;;;;;;5.63;1.70;;;2.60;69.30;;;;;;5036911;28;20481;-42
2021/04/06 02:37:34;;;;;;;5.77;1.83;;;2.60;69.20;;;;;;5041238;28;20477;-40
2021/04/06 02:40:11;;;;;;;3.80;1.70;;;2.60;69.00;;;;;;5042005;28;20465;-40
2021/04/06 02:42:40;;;;;;;3.63;1.93;;;2.60;69.00;;;;;;5041945;28;20869;-40
2021/04/06 02:45:10;;;;;;;7.23;1.67;;;2.70;68.90;;;;;;5041926;28;20463;-40
2021/04/06 02:48:10;;;;;;;6.63;1.80;;;2.70;68.90;;;;;;5040601;28;21738;-40
2021/04/06 02:50:37;;;;;;;2.40;1.97;;;2.70;68.90;;;;;;5038994;28;20470;-40
2021/04/06 02:53:14;;;;;;;4.80;1.63;;;2.70;68.90;;;;;;5040767;28;20555;-40
2021/04/06 02:55:41;;;;;;;4.57;2.03;;;2.70;68.80;;;;;;5038081;28;20768;-40
2021/04/06 02:58:15;;;;;;;4.07;1.50;;;2.80;68.80;;;;;;5042612;28;20963;-40
2021/04/06 03:00:42;;;;;;;4.30;1.57;;;2.80;69.00;;;;;;5036908;28;20466;-40
2021/04/06 03:03:19;;;;;;;4.70;1.77;;;2.90;69.00;;;;;;5040839;28;20896;-40
2021/04/06 03:05:58;;;;;;;6.03;1.93;;;2.90;69.00;;;;;;5037674;28;20496;-40
2021/04/06 03:08:29;;;;;;;6.20;1.50;;;2.90;68.80;;;;;;5037947;28;20451;-40
2021/04/06 03:10:56;;;;;;;2.50;1.93;;;3.00;68.70;;;;;;5029476;28;20980;-40
2021/04/06 03:13:25;;;;;;;3.13;2.17;;;3.00;68.60;;;;;;5038083;28;20489;-40
2021/04/06 03:15:52;;;;;;;2.77;1.57;;;3.00;68.60;;;;;;5053587;28;20462;-40
2021/04/06 03:18:29;;;;;;;4.80;2.00;;;3.00;68.40;;;;;;5038138;28;20960;-40
2021/04/06 03:20:59;;;;;;;4.47;1.63;;;3.00;68.40;;;;;;5044541;28;20458;-40
2021/04/06 03:23:26;;;;;;;4.10;1.80;;;3.00;68.40;;;;;;5042876;28;20521;-40
2021/04/06 03:25:54;;;;;;;3.77;2.20;;;3.00;68.40;;;;;;5040160;28;21055;-40
2021/04/06 03:28:29;;;;;;;5.00;1.83;;;3.10;68.30;;;;;;5045040;28;20455;-40
2021/04/06 03:31:06;;;;;;;4.50;2.27;;;3.10;68.30;;;;;;5037150;28;20846;-40
2021/04/06 03:33:32;;;;;;;6.60;3.37;;;3.10;68.30;;;;;;5044632;28;20589;-40
2021/04/06 03:35:58;;;;;;;2.97;2.30;;;3.10;68.20;;;;;;5040350;28;20497;-40
2021/04/06 03:38:25;;;;;;;7.73;2.07;;;3.10;68.30;;;;;;5039807;28;20557;-40
2021/04/06 03:40:51;;;;;;;6.27;3.33;;;3.10;68.40;;;;;;5036451;28;20462;-40
2021/04/06 03:43:19;;;;;;;2.97;1.53;;;3.10;68.40;;;;;;5036216;28;20469;-40
2021/04/06 03:46:03;;;;;;;5.30;1.80;;;3.10;68.60;;;;;;5042675;28;20540;-40
2021/04/06 03:48:31;;;;;;;5.23;2.33;;;3.10;68.70;;;;;;5037617;28;20821;-40
2021/04/06 03:50:58;;;;;;;5.70;1.63;;;3.10;68.70;;;;;;5039736;28;20455;-40
2021/04/06 03:53:35;;;;;;;4.23;1.60;;;3.00;68.90;;;;;;5045713;28;21026;-40
2021/04/06 03:56:13;;;;;;;4.90;2.53;;;3.10;68.90;;;;;;5038873;28;20458;-40
2021/04/06 03:58:56;;;;;;;4.30;2.30;;;3.10;68.90;;;;;;5037150;28;20457;-40
2021/04/06 04:01:23;;;;;;;3.90;1.77;;;3.10;69.10;;;;;;5035947;28;21011;-40
2021/04/06 04:04:01;;;;;;;4.67;2.17;;;3.10;69.40;;;;;;5031847;28;20802;-40
2021/04/06 04:06:29;;;;;;;7.70;2.80;;;3.10;69.90;;;;;;5030539;28;20487;-40
2021/04/06 04:08:56;;;;;;;5.30;1.93;;;3.10;70.10;;;;;;5035151;28;20957;-40
2021/04/06 04:11:23;;;;;;;5.90;1.70;;;3.20;70.30;;;;;;5036159;28;20463;-40
2021/04/06 04:13:49;;;;;;;5.37;2.30;;;3.20;70.10;;;;;;5039843;28;20487;-40
2021/04/06 04:16:16;;;;;;;3.77;1.80;;;3.20;69.80;;;;;;5041408;28;20498;-40
2021/04/06 04:18:42;;;;;;;6.00;2.97;;;3.20;69.80;;;;;;5035395;28;20545;-40
2021/04/06 04:21:12;;;;;;;5.03;1.60;;;3.20;69.80;;;;;;5055686;28;20455;-40
2021/04/06 04:23:39;;;;;;;3.93;1.67;;;3.20;70.00;;;;;;5041477;28;20458;-40
2021/04/06 04:26:07;;;;;;;7.50;2.00;;;3.20;70.30;;;;;;5038015;28;20528;-40
2021/04/06 04:28:34;;;;;;;5.83;2.30;;;3.20;70.60;;;;;;5038120;28;20467;-40
2021/04/06 04:31:05;;;;;;;3.50;2.17;;;3.20;71.30;;;;;;5038513;28;20999;-40
2021/04/06 04:33:33;;;;;;;6.13;2.43;;;3.10;71.80;;;;;;5037960;28;20497;-40
2021/04/06 04:35:59;;;;;;;3.77;2.20;;;3.10;72.20;;;;;;5037505;28;20478;-40
2021/04/06 04:38:26;;;;;;;6.77;2.57;;;3.10;72.80;;;;;;5042793;28;20462;-40
2021/04/06 04:40:52;;;;;;;4.77;2.20;;;3.10;73.20;;;;;;5036905;28;20951;-40
2021/04/06 04:43:18;;;;;;;4.50;1.90;;;3.00;73.30;;;;;;5036721;28;20463;-40
2021/04/06 04:45:46;;;;;;;8.17;2.83;;;3.00;73.40;;;;;;5039821;28;20467;-40
2021/04/06 04:48:13;;;;;;;9.30;2.00;;;3.00;73.50;;;;;;5038526;28;20466;-40
2021/04/06 04:50:39;;;;;;;4.93;2.20;;;3.00;73.30;;;;;;5043745;28;20446;-40
2021/04/06 04:53:05;;;;;;;11.37;3.60;;;3.00;73.20;;;;;;5036529;28;20461;-40
2021/04/06 04:55:32;;;;;;;2.93;2.10;;;3.00;73.10;;;;;;5036988;28;20867;-40
2021/04/06 04:57:58;;;;;;;4.10;2.40;;;3.00;72.90;;;;;;5038265;28;20455;-40
2021/04/06 05:00:24;;;;;;;7.67;2.80;;;3.00;73.00;;;;;;5038963;28;20458;-40
2021/04/06 05:02:51;;;;;;;8.00;2.33;;;3.00;72.90;;;;;;5037377;28;20466;-40
2021/04/06 05:05:18;;;;;;;5.00;1.57;;;3.00;73.00;;;;;;5037738;28;21014;-40
2021/04/06 05:07:45;;;;;;;4.33;2.73;;;3.10;72.90;;;;;;5057335;28;20490;-40
2021/04/06 05:10:16;;;;;;;6.20;2.00;;;3.00;73.10;;;;;;5037875;28;21145;-40
2021/04/06 05:12:45;;;;;;;9.27;2.03;;;3.00;73.20;;;;;;5034422;28;20890;-40
2021/04/06 05:15:11;;;;;;;4.50;2.00;;;3.00;73.10;;;;;;5039386;28;20459;-40
2021/04/06 05:17:37;;;;;;;6.13;3.10;;;3.10;73.00;;;;;;5053030;28;20485;-40
2021/04/06 05:20:05;;;;;;;9.17;2.53;;;3.10;73.10;;;;;;5039424;28;20463;-40
2021/04/06 05:22:32;;;;;;;6.93;2.10;;;3.10;72.90;;;;;;5041818;28;20463;-40
2021/04/06 05:24:58;;;;;;;4.23;2.10;;;3.10;73.00;;;;;;5041586;28;20469;-40
2021/04/06 05:27:24;;;;;;;7.23;2.10;;;3.20;72.90;;;;;;5042706;28;20481;-40
2021/04/06 05:29:51;;;;;;;5.17;2.40;;;3.20;72.80;;;;;;5040277;28;20458;-40
2021/04/06 05:32:19;;;;;;;7.30;2.27;;;3.20;72.80;;;;;;5057134;28;20855;-40
2021/04/06 05:34:45;;;;;;;3.80;2.77;;;3.20;72.80;;;;;;5042916;28;20533;-40
2021/04/06 05:37:12;;;;;;;6.10;2.33;;;3.20;73.00;;;;;;5041819;28;20454;-40
2021/04/06 05:39:39;;;;;;;5.30;2.47;;;3.10;73.00;;;;;;5043025;28;20459;-40
2021/04/06 05:42:06;;;;;;;5.00;1.97;;;3.20;73.00;;;;;;5040616;28;20468;-40
2021/04/06 05:44:34;;;;;;;6.60;1.80;;;3.20;73.00;;;;;;5040639;28;20549;-40
2021/04/06 05:47:04;;;;;;;8.90;2.57;;;3.20;73.20;;;;;;5042033;28;20525;-40
2021/04/06 05:49:32;;;;;;;4.30;2.07;;;3.20;73.20;;;;;;5038085;28;20557;-40
2021/04/06 05:51:59;;;;;;;3.93;2.00;;;3.20;72.90;;;;;;5044316;28;20465;-40
2021/04/06 05:54:27;;;;;;;12.30;2.00;;;3.20;72.70;;;;;;5041655;28;20509;-40
2021/04/06 05:56:54;;;;;;;7.10;2.07;;;3.30;72.40;;;;;;5044468;28;20451;-40
2021/04/06 05:59:20;;;;;;;4.93;2.70;;;3.30;72.30;;;;;;5039088;28;20459;-40
2021/04/06 06:01:47;;;;;;;7.00;2.50;;;3.40;72.10;;;;;;5043934;28;20566;-40
2021/04/06 06:04:16;;;;;;;6.30;2.43;;;3.40;71.90;;;;;;5039363;28;20756;-40
2021/04/06 06:06:43;;;;;;;4.80;1.80;;;3.40;71.90;;;;;;5042941;28;20576;-40
2021/04/06 06:09:10;;;;;;;5.30;2.10;;;3.50;71.80;;;;;;5037566;28;21055;-40
2021/04/06 06:12:00;;;;;;;3.73;2.03;;;3.50;71.30;;;;;;5040837;28;20473;-40
2021/04/06 06:14:27;;;;;;;4.93;1.93;;;3.50;71.30;;;;;;5040796;28;20458;-40
2021/04/06 06:16:53;;;;;;;3.90;2.40;;;3.50;71.80;;;;;;5040926;28;20487;-40
2021/04/06 06:19:20;;;;;;;4.70;1.70;;;3.50;72.00;;;;;;5038017;28;20806;-40
2021/04/06 06:21:52;;;;;;;6.73;2.67;;;3.50;72.40;;;;;;5042412;28;20947;-40
2021/04/06 06:24:28;;;;;;;3.43;1.63;;;3.50;72.60;;;;;;5035117;28;20469;-40
2021/04/06 06:26:59;;;;;;;4.30;1.97;;;3.60;72.80;;;;;;5038839;28;20501;-40
2021/04/06 06:29:42;;;;;;;4.57;1.93;;;3.60;72.80;;;;;;5040153;28;20454;-40
2021/04/06 06:32:22;;;;;;;2.23;1.73;;;3.70;72.70;;;;;;5045630;28;20450;-40
2021/04/06 06:34:50;;;;;;;2.63;1.83;;;3.80;72.30;;;;;;5040968;28;20482;-40
2021/04/06 06:37:36;;;;;;;2.70;1.70;;;3.80;72.20;;;;;;5037963;28;20467;-40
2021/04/06 06:40:05;;;;;;;3.20;1.40;;;3.80;72.00;;;;;;5041339;28;20469;-40
2021/04/06 06:42:34;;;;;;;5.53;3.00;;;3.90;71.90;;;;;;5036818;28;20466;-40
2021/04/06 06:45:03;;;;;;;5.67;1.60;;;4.00;71.80;;;;;;5039948;28;20473;-40
2021/04/06 06:47:33;;;;;;;2.43;1.80;;;4.10;71.50;;;;;;5039588;28;20496;-40
2021/04/06 06:50:12;;;;;;;6.60;2.17;;;4.10;70.60;;;;;;5040719;28;20547;-40
2021/04/06 06:52:38;;;;;;;6.77;1.60;;;4.20;70.70;;;;;;5040844;28;20560;-40
2021/04/06 06:55:19;;;;;;;4.63;2.23;;;4.20;69.80;;;;;;5041886;28;20547;-40
2021/04/06 06:57:47;;;;;;;2.20;1.50;;;4.40;69.30;;;;;;5037931;28;20467;-40
2021/04/06 07:00:16;;;;;;;2.50;2.20;;;4.40;68.90;;;;;;5045578;28;20536;-40
2021/04/06 07:02:43;;;;;;;4.87;2.00;;;4.50;68.50;;;;;;5039928;28;20467;-40
2021/04/06 07:05:21;;;;;;;3.60;1.60;;;4.60;69.10;;;;;;5039114;28;20869;-40
2021/04/06 07:07:51;;;;;;;6.00;3.10;;;4.70;68.20;;;;;;5036834;28;20482;-40
2021/04/06 07:10:20;;;;;;;1.63;1.10;;;4.80;67.30;;;;;;5043564;28;20446;-40
2021/04/06 07:13:07;;;;;;;2.27;1.40;;;4.90;67.00;;;;;;5040057;28;20473;-41
2021/04/06 07:15:36;;;;;;;4.70;1.30;;;5.00;66.20;;;;;;5041244;28;20460;-40
2021/04/06 07:18:12;;;;;;;7.23;2.70;;;5.00;65.30;;;;;;5041889;28;20488;-40
2021/04/06 07:20:43;;;;;;;10.40;2.27;;;5.00;65.30;;;;;;5038612;28;21105;-40
2021/04/06 07:23:13;;;;;;;5.10;1.70;;;5.10;64.30;;;;;;5037759;28;20463;-40
2021/04/06 07:25:44;;;;;;;5.43;1.87;;;5.20;64.50;;;;;;5026125;28;20886;-40
2021/04/06 07:28:15;;;;;;;5.03;1.33;;;5.30;62.90;;;;;;5038026;28;20482;-40
2021/04/06 07:30:42;;;;;;;5.40;1.77;;;5.40;62.00;;;;;;5036503;28;20458;-40
2021/04/06 07:33:09;;;;;;;7.53;2.53;;;5.40;62.00;;;;;;5041416;28;20458;-40
2021/04/06 07:35:37;;;;;;;3.70;1.60;;;5.60;61.80;;;;;;5038273;28;21436;-40
2021/04/06 07:38:03;;;;;;;5.80;2.30;;;5.80;62.20;;;;;;5031122;28;20466;-40
2021/04/06 07:40:33;;;;;;;7.40;1.33;;;5.90;59.30;;;;;;5032786;28;20463;-40
2021/04/06 07:42:59;;;;;;;4.47;1.80;;;6.10;59.30;;;;;;5043492;28;20474;-40
2021/04/06 07:45:25;;;;;;;6.70;2.00;;;6.20;58.50;;;;;;5037858;28;20965;-40
2021/04/06 07:47:52;;;;;;;5.27;1.70;;;6.20;58.50;;;;;;5037059;28;20990;-40
2021/04/06 07:50:42;;;;;;;4.23;2.00;;;6.30;58.80;;;;;;5038563;28;20791;-40
2021/04/06 07:53:28;;;;;;;9.07;1.50;;;6.30;58.70;;;;;;5035533;28;20542;-40
2021/04/06 07:55:57;;;;;;;5.37;2.00;;;6.20;58.20;;;;;;5040518;28;20459;-40
2021/04/06 07:58:42;;;;;;;9.10;2.40;;;6.30;58.80;;;;;;5037288;28;20459;-40
2021/04/06 08:01:08;;;;;;;12.20;3.40;;;6.40;59.10;;;;;;5038918;28;20497;-40
2021/04/06 08:03:54;;;;;;;4.33;1.87;;;6.40;58.20;;;;;;5035805;28;20484;-40
2021/04/06 08:06:26;;;;;;;4.10;1.80;;;6.40;58.50;;;;;;5040353;28;20483;-40
2021/04/06 08:08:53;;;;;;;9.70;2.10;;;6.40;59.30;;;;;;5037822;28;20451;-40
2021/04/06 08:11:40;;;;;;;9.60;2.50;;;6.40;58.50;;;;;;5034462;28;20467;-40
2021/04/06 08:14:07;;;;;;;7.90;2.00;;;6.40;58.60;;;;;;5036821;28;20477;-40
2021/04/06 08:16:33;;;;;;;8.67;2.13;;;6.40;58.50;;;;;;5036137;28;20999;-40
2021/04/06 08:19:05;;;;;;;6.20;2.23;;;6.40;58.50;;;;;;5035066;28;20561;-40
2021/04/06 08:21:31;;;;;;;9.07;1.70;;;6.50;58.40;;;;;;5033444;28;20463;-40
2021/04/06 08:23:57;;;;;;;8.63;1.30;;;6.40;58.20;;;;;;5032057;28;20455;-40
2021/04/06 08:26:29;;;;;;;5.73;2.13;;;6.50;58.20;;;;;;5034878;28;20867;-40
2021/04/06 08:28:56;;;;;;;4.20;1.50;;;6.60;57.70;;;;;;5033395;28;20981;-40
2021/04/06 08:31:28;;;;;;;5.47;1.73;;;6.70;57.00;;;;;;5032999;28;20494;-40
2021/04/06 08:34:14;;;;;;;3.83;1.10;;;6.70;56.30;;;;;;5036875;28;20854;-40
2021/04/06 08:36:41;;;;;;;2.53;1.17;;;6.80;56.30;;;;;;5036987;28;20466;-40
2021/04/06 08:39:07;;;;;;;3.90;1.60;;;6.80;56.00;;;;;;5036864;28;20468;-40
2021/04/06 08:41:36;;;;;;;4.83;2.87;;;6.70;55.70;;;;;;5040006;28;20446;-39
2021/04/06 08:44:06;;;;;;;3.70;1.20;;;6.70;56.00;;;;;;5037507;28;20540;-39
2021/04/06 08:46:33;;;;;;;3.20;1.30;;;6.90;55.90;;;;;;5038278;28;20560;-39
2021/04/06 08:48:59;;;;;;;2.33;0.93;;;7.30;55.60;;;;;;5040096;28;20538;-39
2021/04/06 08:51:30;;;;;;;8.47;2.27;;;7.90;54.50;;;;;;5036343;28;20460;-40
2021/04/06 08:54:02;;;;;;;1.60;1.17;;;8.50;52.40;;;;;;5036300;28;20451;-40
2021/04/06 08:56:29;;;;;;;3.40;2.07;;;9.00;50.40;;;;;;5043673;28;20483;-40
2021/04/06 08:59:20;;;;;;;3.43;1.30;;;9.20;49.00;;;;;;5047397;28;20453;-40
2021/04/06 09:02:15;;;;;;;2.43;1.50;;;9.10;48.30;;;;;;5041611;28;20582;-40
2021/04/06 09:04:43;;;;;;;5.13;1.53;;;8.90;48.60;;;;;;5041658;28;20466;-40
2021/04/06 09:07:19;;;;;;;3.40;1.30;;;8.70;49.10;;;;;;5037998;28;20486;-39
2021/04/06 09:09:46;;;;;;;4.03;1.80;;;8.50;49.40;;;;;;5059413;28;20463;-40
2021/04/06 09:12:13;;;;;;;5.43;1.83;;;8.30;49.70;;;;;;5038823;28;20451;-40
2021/04/06 09:18:27;;;;;;;7.17;1.90;;;8.30;50.30;;;;;;5027697;28;20461;-39
2021/04/06 09:20:54;;;;;;;2.60;1.00;;;8.10;50.40;;;;;;5038827;28;20454;-40
2021/04/06 09:23:27;;;;;;;2.63;1.00;;;7.90;50.70;;;;;;5024694;28;20571;-40
2021/04/06 09:25:54;;;;;;;4.90;1.50;;;7.90;52.00;;;;;;5040817;28;20719;-40
2021/04/06 09:28:20;;;;;;;2.83;0.93;;;7.90;52.30;;;;;;5056218;28;20483;-40
2021/04/06 09:30:47;;;;;;;6.17;1.90;;;8.00;50.80;;;;;;5038970;28;20524;-39
2021/04/06 09:33:17;;;;;;;3.97;0.90;;;8.30;50.60;;;;;;5042233;28;20839;-39
2021/04/06 09:35:53;;;;;;;1.30;1.13;;;8.50;49.10;;;;;;5038223;28;20545;-39
2021/04/06 09:38:23;;;;;;;1.20;0.90;;;8.60;49.10;;;;;;5040607;28;20471;-40
2021/04/06 09:40:49;;;;;;;2.13;1.30;;;8.50;49.20;;;;;;5038655;28;20447;-39
2021/04/06 09:43:16;;;;;;;4.50;1.90;;;8.30;50.00;;;;;;5038072;28;20535;-40
2021/04/06 09:45:43;;;;;;;3.40;1.00;;;8.30;50.30;;;;;;5034230;28;20571;-39
2021/04/06 09:48:14;;;;;;;1.50;1.17;;;8.40;50.70;;;;;;5041999;28;20548;-40
2021/04/06 09:50:55;;;;;;;6.83;1.53;;;8.50;49.90;;;;;;5041498;28;20549;-39
2021/04/06 09:53:22;;;;;;;4.10;1.57;;;8.50;48.80;;;;;;5049408;28;20447;-40
2021/04/06 09:55:49;;;;;;;4.20;1.20;;;8.50;48.40;;;;;;5040675;28;20451;-40
2021/04/06 09:58:15;;;;;;;4.17;1.20;;;8.50;48.60;;;;;;5046298;28;20459;-39
2021/04/06 10:00:44;;;;;;;6.60;1.37;;;8.50;49.10;;;;;;5045770;28;20815;-40
2021/04/06 10:03:14;;;;;;;7.27;1.20;;;8.50;48.90;;;;;;5039944;28;20974;-40
2021/04/06 10:05:45;;;;;;;5.30;1.40;;;8.70;48.50;;;;;;5038932;28;20459;-40
2021/04/06 10:08:13;;;;;;;4.03;1.50;;;8.70;48.30;;;;;;5041649;28;20482;-40
2021/04/06 10:10:48;;;;;;;3.90;2.10;;;8.50;48.30;;;;;;5045590;28;20808;-39
2021/04/06 10:13:14;;;;;;;3.93;1.30;;;8.30;48.30;;;;;;5044659;28;20537;-39
2021/04/06 10:15:41;;;;;;;2.57;1.10;;;8.10;49.70;;;;;;5045268;28;20470;-40
2021/04/06 10:18:09;;;;;;;5.50;1.53;;;7.90;50.30;;;;;;5044326;28;20489;-40
2021/04/06 10:20:43;;;;;;;3.17;1.73;;;7.80;51.40;;;;;;5041966;28;20463;-40
2021/04/06 10:23:11;;;;;;;2.80;1.80;;;7.70;51.40;;;;;;5044108;28;20454;-40
2021/04/06 10:25:44;;;;;;;4.93;1.23;;;7.90;51.50;;;;;;5040228;28;20542;-40
2021/04/06 10:28:23;;;;;;;1.60;1.10;;;8.70;50.70;;;;;;5044268;28;20482;-40
2021/04/06 10:30:57;;;;;;;1.70;1.20;;;9.50;49.10;;;;;;5042433;28;20986;-39
2021/04/06 10:33:30;;;;;;;3.40;1.30;;;9.80;46.40;;;;;;5044614;28;20445;-40
2021/04/06 10:36:00;;;;;;;2.40;1.00;;;9.60;46.80;;;;;;5039940;28;20936;-40
2021/04/06 10:38:31;;;;;;;1.60;0.93;;;9.40;46.30;;;;;;5045763;28;21023;-40
2021/04/06 10:41:15;;;;;;;1.23;1.10;;;9.30;46.90;;;;;;5042714;28;20543;-40
2021/04/06 10:43:47;;;;;;;2.93;1.60;;;9.80;45.80;;;;;;5038331;28;20862;-40
2021/04/06 10:46:16;;;;;;;1.60;1.03;;;10.00;45.00;;;;;;5040270;28;20451;-40
2021/04/06 10:48:51;;;;;;;2.63;1.07;;;9.90;45.10;;;;;;5042021;28;20454;-40
2021/04/06 10:51:24;;;;;;;5.83;1.90;;;9.80;45.80;;;;;;5038576;28;20443;-40
2021/04/06 10:53:56;;;;;;;3.70;0.80;;;9.80;45.70;;;;;;5035572;28;20494;-40
2021/04/06 10:56:26;;;;;;;1.73;1.00;;;9.70;44.20;;;;;;5044696;28;20454;-40
2021/04/06 10:58:56;;;;;;;1.93;0.90;;;9.50;44.60;;;;;;5040327;28;20456;-40
2021/04/06 11:01:26;;;;;;;6.30;1.53;;;9.40;45.40;;;;;;5043267;28;20810;-40
2021/04/06 11:04:01;;;;;;;2.30;1.30;;;9.50;43.30;;;;;;5044131;28;20947;-40
2021/04/06 11:06:35;;;;;;;1.50;1.00;;;9.80;42.00;;;;;;5044659;28;20451;-40
2021/04/06 11:09:20;;;;;;;2.93;1.40;;;10.30;40.50;;;;;;5044782;28;20460;-40
2021/04/06 11:11:53;;;;;;;1.60;0.97;;;10.60;40.80;;;;;;5039431;28;20555;-40
2021/04/06 11:14:25;;;;;;;2.80;1.20;;;11.10;42.90;;;;;;5041927;28;20462;-40
2021/04/06 11:16:52;;;;;;;6.07;1.77;;;11.40;41.40;;;;;;5043736;28;20527;-40
2021/04/06 11:19:27;;;;;;;2.23;1.23;;;11.40;41.40;;;;;;5037108;28;20832;-40
2021/04/06 11:21:57;;;;;;;4.43;1.63;;;11.20;42.10;;;;;;5043265;28;20482;-40
2021/04/06 11:24:25;;;;;;;4.70;1.43;;;11.10;42.80;;;;;;5042926;28;20838;-40
2021/04/06 11:26:53;;;;;;;2.00;0.80;;;11.00;42.90;;;;;;5037531;28;20491;-40
2021/04/06 11:29:26;;;;;;;5.33;0.67;;;10.80;42.60;;;;;;5041960;28;20444;-40
2021/04/06 11:31:57;;;;;;;2.30;0.80;;;10.70;41.40;;;;;;5041982;28;20948;-40
2021/04/06 11:34:24;;;;;;;2.50;1.43;;;10.50;41.70;;;;;;5041289;28;20438;-39
2021/04/06 11:36:50;;;;;;;1.67;0.77;;;10.20;41.70;;;;;;5044055;28;20461;-40
2021/04/06 11:39:20;;;;;;;1.47;1.00;;;10.00;42.50;;;;;;5043326;28;20533;-40
2021/04/06 11:41:50;;;;;;;1.87;1.40;;;9.80;42.80;;;;;;5040962;28;20554;-40
2021/04/06 11:44:18;;;;;;;2.60;1.40;;;9.50;45.70;;;;;;5041162;28;20881;-40
2021/04/06 11:46:46;;;;;;;1.47;0.90;;;9.20;48.00;;;;;;5039510;28;20478;-40
2021/04/06 11:49:13;;;;;;;1.60;0.87;;;8.90;48.90;;;;;;5040922;28;20537;-40
2021/04/06 11:51:41;;;;;;;1.57;1.30;;;8.70;49.20;;;;;;5041742;28;20450;-39
2021/04/06 11:54:09;;;;;;;1.00;0.83;;;8.40;49.90;;;;;;5044165;28;20442;-40
2021/04/06 11:56:36;;;;;;;1.53;1.27;;;8.20;50.80;;;;;;5042393;28;20771;-40
2021/04/06 11:59:04;;;;;;;3.83;1.70;;;8.20;51.50;;;;;;5040839;28;20477;-39
2021/04/06 12:01:33;;;;;;;3.70;1.40;;;8.20;51.50;;;;;;5040128;28;20456;-40
2021/04/06 12:04:00;;;;;;;1.70;1.60;;;8.20;51.70;;;;;;5046227;28;20431;-39
2021/04/06 12:06:27;;;;;;;3.87;1.47;;;8.30;51.80;;;;;;5039128;28;20971;-40
2021/04/06 12:08:53;;;;;;;5.20;1.13;;;8.30;52.00;;;;;;5041856;28;20438;-40
2021/04/06 12:11:20;;;;;;;1.60;0.80;;;8.40;51.70;;;;;;5038392;28;20459;-40
2021/04/06 12:13:47;;;;;;;3.57;1.50;;;8.60;51.60;;;;;;5030500;28;20455;-39
2021/04/06 12:16:14;;;;;;;2.57;1.10;;;8.80;51.00;;;;;;5036953;28;20502;-40
2021/04/06 12:18:40;;;;;;;6.87;1.90;;;9.00;50.40;;;;;;5036333;28;20547;-39
2021/04/06 12:21:09;;;;;;;3.00;1.13;;;9.10;49.30;;;;;;5039763;28;20513;-40
2021/04/06 12:23:36;;;;;;;3.83;1.37;;;9.20;48.80;;;;;;5043470;28;20546;-40
2021/04/06 12:26:03;;;;;;;1.67;1.57;;;9.20;47.70;;;;;;5041628;28;20467;-39
2021/04/06 12:28:30;;;;;;;1.73;0.97;;;9.10;47.40;;;;;;5041291;28;20840;-39
2021/04/06 12:30:56;;;;;;;3.13;1.27;;;9.00;47.90;;;;;;5040249;28;20842;-39
2021/04/06 12:33:22;;;;;;;1.80;1.40;;;8.90;48.50;;;;;;5040216;28;20508;-40
2021/04/06 12:35:49;;;;;;;3.80;0.90;;;8.70;48.90;;;;;;5041191;28;20452;-39
2021/04/06 12:38:16;;;;;;;3.07;1.07;;;8.60;49.80;;;;;;5039104;28;20443;-40
2021/04/06 12:40:42;;;;;;;4.23;1.40;;;8.40;51.70;;;;;;5040616;28;20453;-40
2021/04/06 12:43:09;;;;;;;4.20;1.40;;;8.20;54.70;;;;;;5035941;28;20831;-39
2021/04/06 12:45:35;;;;;;;1.60;1.33;;;7.90;55.80;;;;;;5040182;28;20557;-39
2021/04/06 12:48:02;;;;;;;4.27;1.33;;;7.80;57.80;;;;;;5038619;28;20495;-39
2021/04/06 12:50:30;;;;;;;7.90;1.30;;;7.80;59.90;;;;;;5039323;28;20454;-39
2021/04/06 12:52:57;;;;;;;3.60;1.40;;;8.10;62.40;;;;;;5038317;28;20455;-39
2021/04/06 12:55:23;;;;;;;4.13;1.07;;;8.30;60.60;;;;;;5046371;28;20442;-40
2021/04/06 12:57:50;;;;;;;3.40;1.40;;;8.50;60.70;;;;;;5053140;28;20455;-40
2021/04/06 13:00:16;;;;;;;1.77;1.40;;;8.70;58.70;;;;;;5035783;28;20956;-40
2021/04/06 13:02:43;;;;;;;1.77;0.97;;;8.90;58.00;;;;;;5039533;28;20505;-39
2021/04/06 13:05:10;;;;;;;1.90;1.07;;;9.20;58.30;;;;;;5052544;28;20959;-40
2021/04/06 13:07:37;;;;;;;0.70;0.70;;;9.40;53.90;;;;;;5039122;28;21082;-40
2021/04/06 13:10:04;;;;;;;1.50;0.80;;;9.40;51.20;;;;;;5039024;28;20557;-40
2021/04/06 13:12:31;;;;;;;2.00;0.90;;;9.20;51.90;;;;;;5044528;28;20534;-40
2021/04/06 13:14:58;;;;;;;2.93;0.80;;;9.10;53.30;;;;;;5053137;28;20960;-39